sensor_id;sensor_type;location;lat;lon;timestamp;P1;durP1;ratioP1;P2;durP2;ratioP2
61756;SDS011;57225;61.460;24.060;2022-11-25T00:02:46;7.68;;;4.05;;
61756;SDS011;57225;61.460;24.060;2022-11-25T00:05:30;8.93;;;4.00;;
61756;SDS011;57225;61.460;24.060;2022-11-25T00:08:14;8.10;;;4.00;;
61756;SDS011;57225;61.460;24.060;2022-11-25T00:11:01;9.65;;;3.85;;
61756;SDS011;57225;61.460;24.060;2022-11-25T00:13:46;8.15;;;3.83;;
61756;SDS011;57225;61.460;24.060;2022-11-25T00:16:31;8.25;;;3.88;;
61756;SDS011;57225;61.460;24.060;2022-11-25T00:19:16;5.78;;;2.80;;
61756;SDS011;57225;61.460;24.060;2022-11-25T00:22:00;6.13;;;2.90;;
61756;SDS011;57225;61.460;24.060;2022-11-25T00:24:44;6.38;;;2.72;;
61756;SDS011;57225;61.460;24.060;2022-11-25T00:27:29;5.70;;;2.60;;
61756;SDS011;57225;61.460;24.060;2022-11-25T00:30:13;6.28;;;2.90;;
61756;SDS011;57225;61.460;24.060;2022-11-25T00:32:57;6.90;;;2.80;;
61756;SDS011;57225;61.460;24.060;2022-11-25T00:35:41;4.70;;;2.50;;
61756;SDS011;57225;61.460;24.060;2022-11-25T00:38:26;4.97;;;2.42;;
61756;SDS011;57225;61.460;24.060;2022-11-25T00:41:10;4.43;;;2.20;;
61756;SDS011;57225;61.460;24.060;2022-11-25T00:44:14;5.50;;;2.60;;
61756;SDS011;57225;61.460;24.060;2022-11-25T00:47:19;4.65;;;2.22;;
61756;SDS011;57225;61.460;24.060;2022-11-25T00:50:04;4.70;;;2.50;;
61756;SDS011;57225;61.460;24.060;2022-11-25T00:52:49;5.15;;;2.67;;
61756;SDS011;57225;61.460;24.060;2022-11-25T00:55:33;8.15;;;2.75;;
61756;SDS011;57225;61.460;24.060;2022-11-25T00:58:41;4.55;;;2.40;;
61756;SDS011;57225;61.460;24.060;2022-11-25T01:01:26;3.38;;;2.00;;
61756;SDS011;57225;61.460;24.060;2022-11-25T01:04:10;3.17;;;2.08;;
61756;SDS011;57225;61.460;24.060;2022-11-25T01:06:55;4.45;;;2.20;;
61756;SDS011;57225;61.460;24.060;2022-11-25T01:09:40;5.63;;;2.47;;
61756;SDS011;57225;61.460;24.060;2022-11-25T01:12:25;5.78;;;2.28;;
61756;SDS011;57225;61.460;24.060;2022-11-25T01:15:09;4.30;;;2.13;;
61756;SDS011;57225;61.460;24.060;2022-11-25T01:17:54;5.50;;;2.47;;
61756;SDS011;57225;61.460;24.060;2022-11-25T01:20:38;4.07;;;2.40;;
61756;SDS011;57225;61.460;24.060;2022-11-25T01:23:23;4.28;;;2.50;;
61756;SDS011;57225;61.460;24.060;2022-11-25T01:26:11;6.20;;;2.60;;
61756;SDS011;57225;61.460;24.060;2022-11-25T01:28:58;4.07;;;2.20;;
61756;SDS011;57225;61.460;24.060;2022-11-25T01:31:44;4.43;;;2.25;;
61756;SDS011;57225;61.460;24.060;2022-11-25T01:34:29;4.75;;;2.53;;
61756;SDS011;57225;61.460;24.060;2022-11-25T01:37:15;4.97;;;2.25;;
61756;SDS011;57225;61.460;24.060;2022-11-25T01:39:59;2.88;;;1.90;;
61756;SDS011;57225;61.460;24.060;2022-11-25T01:42:47;2.95;;;1.80;;
61756;SDS011;57225;61.460;24.060;2022-11-25T01:45:32;2.45;;;1.77;;
61756;SDS011;57225;61.460;24.060;2022-11-25T01:48:27;2.63;;;1.63;;
61756;SDS011;57225;61.460;24.060;2022-11-25T01:51:16;2.63;;;1.67;;
61756;SDS011;57225;61.460;24.060;2022-11-25T01:54:07;2.55;;;1.58;;
61756;SDS011;57225;61.460;24.060;2022-11-25T01:56:56;2.53;;;1.60;;
61756;SDS011;57225;61.460;24.060;2022-11-25T01:59:48;2.50;;;1.73;;
61756;SDS011;57225;61.460;24.060;2022-11-25T02:02:35;3.17;;;1.55;;
61756;SDS011;57225;61.460;24.060;2022-11-25T02:05:21;2.80;;;1.70;;
61756;SDS011;57225;61.460;24.060;2022-11-25T02:08:11;3.55;;;1.85;;
61756;SDS011;57225;61.460;24.060;2022-11-25T02:10:57;2.97;;;1.90;;
61756;SDS011;57225;61.460;24.060;2022-11-25T02:13:47;2.90;;;1.88;;
61756;SDS011;57225;61.460;24.060;2022-11-25T02:16:34;4.85;;;1.77;;
61756;SDS011;57225;61.460;24.060;2022-11-25T02:19:28;2.95;;;1.90;;
61756;SDS011;57225;61.460;24.060;2022-11-25T02:22:26;3.33;;;2.00;;
61756;SDS011;57225;61.460;24.060;2022-11-25T02:25:23;4.30;;;2.67;;
61756;SDS011;57225;61.460;24.060;2022-11-25T02:28:12;4.28;;;2.22;;
61756;SDS011;57225;61.460;24.060;2022-11-25T02:31:02;3.25;;;2.28;;
61756;SDS011;57225;61.460;24.060;2022-11-25T02:33:47;3.17;;;2.17;;
61756;SDS011;57225;61.460;24.060;2022-11-25T02:36:32;4.03;;;2.50;;
61756;SDS011;57225;61.460;24.060;2022-11-25T02:39:17;4.30;;;2.50;;
61756;SDS011;57225;61.460;24.060;2022-11-25T02:42:02;3.70;;;2.45;;
61756;SDS011;57225;61.460;24.060;2022-11-25T02:44:47;4.53;;;2.70;;
61756;SDS011;57225;61.460;24.060;2022-11-25T02:47:32;4.80;;;2.70;;
61756;SDS011;57225;61.460;24.060;2022-11-25T02:50:16;5.75;;;2.55;;
61756;SDS011;57225;61.460;24.060;2022-11-25T02:53:00;3.95;;;2.58;;
61756;SDS011;57225;61.460;24.060;2022-11-25T02:55:44;3.15;;;2.20;;
61756;SDS011;57225;61.460;24.060;2022-11-25T02:58:29;3.42;;;2.03;;
61756;SDS011;57225;61.460;24.060;2022-11-25T03:01:13;3.85;;;2.25;;
61756;SDS011;57225;61.460;24.060;2022-11-25T03:03:58;3.35;;;2.20;;
61756;SDS011;57225;61.460;24.060;2022-11-25T03:06:42;3.22;;;2.10;;
61756;SDS011;57225;61.460;24.060;2022-11-25T03:09:27;2.88;;;2.03;;
61756;SDS011;57225;61.460;24.060;2022-11-25T03:12:11;3.55;;;2.20;;
61756;SDS011;57225;61.460;24.060;2022-11-25T03:15:04;3.60;;;2.42;;
61756;SDS011;57225;61.460;24.060;2022-11-25T03:17:49;4.72;;;2.20;;
61756;SDS011;57225;61.460;24.060;2022-11-25T03:20:34;3.92;;;2.22;;
61756;SDS011;57225;61.460;24.060;2022-11-25T03:23:19;3.40;;;2.42;;
61756;SDS011;57225;61.460;24.060;2022-11-25T03:26:05;7.22;;;2.40;;
61756;SDS011;57225;61.460;24.060;2022-11-25T03:28:49;4.43;;;2.85;;
61756;SDS011;57225;61.460;24.060;2022-11-25T03:31:34;2.83;;;2.17;;
61756;SDS011;57225;61.460;24.060;2022-11-25T03:34:18;4.40;;;2.40;;
61756;SDS011;57225;61.460;24.060;2022-11-25T03:37:02;4.35;;;2.58;;
61756;SDS011;57225;61.460;24.060;2022-11-25T03:39:46;4.15;;;2.50;;
61756;SDS011;57225;61.460;24.060;2022-11-25T03:42:31;3.85;;;2.42;;
61756;SDS011;57225;61.460;24.060;2022-11-25T03:45:15;4.75;;;2.53;;
61756;SDS011;57225;61.460;24.060;2022-11-25T03:48:00;3.25;;;2.38;;
61756;SDS011;57225;61.460;24.060;2022-11-25T03:50:44;6.47;;;2.72;;
61756;SDS011;57225;61.460;24.060;2022-11-25T03:53:30;6.70;;;3.08;;
61756;SDS011;57225;61.460;24.060;2022-11-25T03:56:15;10.65;;;3.15;;
61756;SDS011;57225;61.460;24.060;2022-11-25T03:58:59;7.13;;;3.08;;
61756;SDS011;57225;61.460;24.060;2022-11-25T04:01:43;6.50;;;2.88;;
61756;SDS011;57225;61.460;24.060;2022-11-25T04:04:28;5.10;;;2.70;;
61756;SDS011;57225;61.460;24.060;2022-11-25T04:07:12;5.13;;;2.95;;
61756;SDS011;57225;61.460;24.060;2022-11-25T04:09:57;6.20;;;3.40;;
61756;SDS011;57225;61.460;24.060;2022-11-25T04:12:41;6.05;;;3.30;;
61756;SDS011;57225;61.460;24.060;2022-11-25T04:15:29;14.60;;;4.07;;
61756;SDS011;57225;61.460;24.060;2022-11-25T04:18:13;9.25;;;3.47;;
61756;SDS011;57225;61.460;24.060;2022-11-25T04:20:58;6.72;;;3.58;;
61756;SDS011;57225;61.460;24.060;2022-11-25T04:23:42;6.00;;;3.47;;
61756;SDS011;57225;61.460;24.060;2022-11-25T04:26:26;6.18;;;3.60;;
61756;SDS011;57225;61.460;24.060;2022-11-25T04:29:11;7.10;;;3.70;;
61756;SDS011;57225;61.460;24.060;2022-11-25T04:31:55;7.45;;;3.63;;
61756;SDS011;57225;61.460;24.060;2022-11-25T04:34:40;6.03;;;3.75;;
61756;SDS011;57225;61.460;24.060;2022-11-25T04:37:24;8.15;;;3.67;;
61756;SDS011;57225;61.460;24.060;2022-11-25T04:40:10;7.53;;;3.72;;
61756;SDS011;57225;61.460;24.060;2022-11-25T04:42:54;7.63;;;3.83;;
61756;SDS011;57225;61.460;24.060;2022-11-25T04:45:38;7.38;;;3.65;;
61756;SDS011;57225;61.460;24.060;2022-11-25T04:48:23;10.95;;;3.33;;
61756;SDS011;57225;61.460;24.060;2022-11-25T04:51:07;8.05;;;3.50;;
61756;SDS011;57225;61.460;24.060;2022-11-25T04:53:52;12.35;;;4.15;;
61756;SDS011;57225;61.460;24.060;2022-11-25T04:56:36;8.85;;;4.10;;
61756;SDS011;57225;61.460;24.060;2022-11-25T04:59:20;7.25;;;4.50;;
61756;SDS011;57225;61.460;24.060;2022-11-25T05:02:24;12.25;;;4.45;;
61756;SDS011;57225;61.460;24.060;2022-11-25T05:05:10;15.38;;;5.22;;
61756;SDS011;57225;61.460;24.060;2022-11-25T05:07:54;11.95;;;4.45;;
61756;SDS011;57225;61.460;24.060;2022-11-25T05:10:39;7.95;;;4.75;;
61756;SDS011;57225;61.460;24.060;2022-11-25T05:13:23;8.43;;;4.65;;
61756;SDS011;57225;61.460;24.060;2022-11-25T05:16:07;9.77;;;5.25;;
61756;SDS011;57225;61.460;24.060;2022-11-25T05:18:54;9.93;;;5.07;;
61756;SDS011;57225;61.460;24.060;2022-11-25T05:21:39;11.73;;;5.03;;
61756;SDS011;57225;61.460;24.060;2022-11-25T05:24:23;11.80;;;4.85;;
61756;SDS011;57225;61.460;24.060;2022-11-25T05:27:08;8.43;;;5.07;;
61756;SDS011;57225;61.460;24.060;2022-11-25T05:29:52;11.27;;;5.22;;
61756;SDS011;57225;61.460;24.060;2022-11-25T05:32:37;13.20;;;5.28;;
61756;SDS011;57225;61.460;24.060;2022-11-25T05:35:23;10.30;;;5.07;;
61756;SDS011;57225;61.460;24.060;2022-11-25T05:38:07;13.80;;;4.82;;
61756;SDS011;57225;61.460;24.060;2022-11-25T05:40:52;10.18;;;5.25;;
61756;SDS011;57225;61.460;24.060;2022-11-25T05:43:37;11.60;;;5.45;;
61756;SDS011;57225;61.460;24.060;2022-11-25T05:46:21;8.68;;;4.75;;
61756;SDS011;57225;61.460;24.060;2022-11-25T05:49:05;8.80;;;4.47;;
61756;SDS011;57225;61.460;24.060;2022-11-25T05:51:50;13.13;;;5.07;;
61756;SDS011;57225;61.460;24.060;2022-11-25T05:54:34;11.90;;;5.40;;
61756;SDS011;57225;61.460;24.060;2022-11-25T05:57:19;11.50;;;5.93;;
61756;SDS011;57225;61.460;24.060;2022-11-25T06:00:04;13.60;;;5.63;;
61756;SDS011;57225;61.460;24.060;2022-11-25T06:02:49;9.73;;;5.70;;
61756;SDS011;57225;61.460;24.060;2022-11-25T06:05:34;8.88;;;5.07;;
61756;SDS011;57225;61.460;24.060;2022-11-25T06:08:18;9.65;;;5.22;;
61756;SDS011;57225;61.460;24.060;2022-11-25T06:11:04;11.18;;;5.30;;
61756;SDS011;57225;61.460;24.060;2022-11-25T06:16:36;14.68;;;6.00;;
61756;SDS011;57225;61.460;24.060;2022-11-25T06:19:21;11.77;;;5.68;;
61756;SDS011;57225;61.460;24.060;2022-11-25T06:22:05;13.52;;;6.00;;
61756;SDS011;57225;61.460;24.060;2022-11-25T06:24:49;12.55;;;5.90;;
61756;SDS011;57225;61.460;24.060;2022-11-25T06:27:34;12.07;;;6.55;;
61756;SDS011;57225;61.460;24.060;2022-11-25T06:30:18;12.68;;;6.07;;
61756;SDS011;57225;61.460;24.060;2022-11-25T06:33:02;10.73;;;5.65;;
61756;SDS011;57225;61.460;24.060;2022-11-25T06:35:47;9.55;;;5.47;;
61756;SDS011;57225;61.460;24.060;2022-11-25T06:38:31;10.57;;;5.60;;
61756;SDS011;57225;61.460;24.060;2022-11-25T06:41:17;9.25;;;5.22;;
61756;SDS011;57225;61.460;24.060;2022-11-25T06:44:02;9.70;;;5.07;;
61756;SDS011;57225;61.460;24.060;2022-11-25T06:46:46;9.90;;;5.35;;
61756;SDS011;57225;61.460;24.060;2022-11-25T06:49:31;15.82;;;7.57;;
61756;SDS011;57225;61.460;24.060;2022-11-25T06:52:15;9.85;;;5.55;;
61756;SDS011;57225;61.460;24.060;2022-11-25T06:54:59;9.02;;;5.13;;
61756;SDS011;57225;61.460;24.060;2022-11-25T06:57:44;8.95;;;4.95;;
61756;SDS011;57225;61.460;24.060;2022-11-25T07:00:28;10.10;;;5.10;;
61756;SDS011;57225;61.460;24.060;2022-11-25T07:03:13;8.20;;;4.57;;
61756;SDS011;57225;61.460;24.060;2022-11-25T07:05:58;9.45;;;5.05;;
61756;SDS011;57225;61.460;24.060;2022-11-25T07:08:43;7.47;;;4.35;;
61756;SDS011;57225;61.460;24.060;2022-11-25T07:11:29;8.63;;;4.70;;
61756;SDS011;57225;61.460;24.060;2022-11-25T07:14:20;6.95;;;4.00;;
61756;SDS011;57225;61.460;24.060;2022-11-25T07:17:05;5.63;;;3.70;;
61756;SDS011;57225;61.460;24.060;2022-11-25T07:19:49;6.70;;;3.90;;
61756;SDS011;57225;61.460;24.060;2022-11-25T07:22:33;5.97;;;3.58;;
61756;SDS011;57225;61.460;24.060;2022-11-25T07:25:18;6.40;;;3.95;;
61756;SDS011;57225;61.460;24.060;2022-11-25T07:28:02;8.30;;;3.50;;
61756;SDS011;57225;61.460;24.060;2022-11-25T07:30:47;10.65;;;3.90;;
61756;SDS011;57225;61.460;24.060;2022-11-25T07:33:31;7.05;;;4.07;;
61756;SDS011;57225;61.460;24.060;2022-11-25T07:36:15;8.90;;;3.92;;
61756;SDS011;57225;61.460;24.060;2022-11-25T07:39:01;6.88;;;4.18;;
61756;SDS011;57225;61.460;24.060;2022-11-25T07:41:48;8.63;;;4.38;;
61756;SDS011;57225;61.460;24.060;2022-11-25T07:44:33;8.43;;;4.57;;
61756;SDS011;57225;61.460;24.060;2022-11-25T07:47:17;6.10;;;3.45;;
61756;SDS011;57225;61.460;24.060;2022-11-25T07:50:02;9.85;;;4.25;;
61756;SDS011;57225;61.460;24.060;2022-11-25T07:52:46;9.80;;;4.18;;
61756;SDS011;57225;61.460;24.060;2022-11-25T07:55:31;10.68;;;4.57;;
61756;SDS011;57225;61.460;24.060;2022-11-25T07:58:15;8.32;;;4.32;;
61756;SDS011;57225;61.460;24.060;2022-11-25T08:01:03;11.55;;;5.03;;
61756;SDS011;57225;61.460;24.060;2022-11-25T08:03:48;10.57;;;5.03;;
61756;SDS011;57225;61.460;24.060;2022-11-25T08:06:36;11.13;;;4.80;;
61756;SDS011;57225;61.460;24.060;2022-11-25T08:09:22;7.80;;;4.00;;
61756;SDS011;57225;61.460;24.060;2022-11-25T08:12:06;7.75;;;4.28;;
61756;SDS011;57225;61.460;24.060;2022-11-25T08:14:51;7.32;;;4.03;;
61756;SDS011;57225;61.460;24.060;2022-11-25T08:17:35;7.00;;;3.80;;
61756;SDS011;57225;61.460;24.060;2022-11-25T08:20:20;9.18;;;4.10;;
61756;SDS011;57225;61.460;24.060;2022-11-25T08:23:04;8.65;;;4.15;;
61756;SDS011;57225;61.460;24.060;2022-11-25T08:25:49;9.65;;;3.85;;
61756;SDS011;57225;61.460;24.060;2022-11-25T08:28:34;7.25;;;3.65;;
61756;SDS011;57225;61.460;24.060;2022-11-25T08:31:20;8.55;;;4.25;;
61756;SDS011;57225;61.460;24.060;2022-11-25T08:34:06;8.23;;;3.92;;
61756;SDS011;57225;61.460;24.060;2022-11-25T08:36:50;8.05;;;3.85;;
61756;SDS011;57225;61.460;24.060;2022-11-25T08:39:34;9.68;;;3.88;;
61756;SDS011;57225;61.460;24.060;2022-11-25T08:42:19;6.25;;;3.75;;
61756;SDS011;57225;61.460;24.060;2022-11-25T08:45:04;7.00;;;3.42;;
61756;SDS011;57225;61.460;24.060;2022-11-25T08:47:49;6.05;;;3.40;;
61756;SDS011;57225;61.460;24.060;2022-11-25T08:50:34;9.88;;;4.43;;
61756;SDS011;57225;61.460;24.060;2022-11-25T08:53:18;7.28;;;3.95;;
61756;SDS011;57225;61.460;24.060;2022-11-25T08:56:04;5.85;;;3.13;;
61756;SDS011;57225;61.460;24.060;2022-11-25T08:58:49;6.28;;;3.15;;
61756;SDS011;57225;61.460;24.060;2022-11-25T09:01:33;6.57;;;3.72;;
61756;SDS011;57225;61.460;24.060;2022-11-25T09:04:17;7.55;;;3.45;;
61756;SDS011;57225;61.460;24.060;2022-11-25T09:07:03;6.50;;;3.30;;
61756;SDS011;57225;61.460;24.060;2022-11-25T09:09:48;6.85;;;3.33;;
61756;SDS011;57225;61.460;24.060;2022-11-25T09:12:34;5.18;;;3.05;;
61756;SDS011;57225;61.460;24.060;2022-11-25T09:15:18;6.57;;;3.70;;
61756;SDS011;57225;61.460;24.060;2022-11-25T09:18:03;7.03;;;3.92;;
61756;SDS011;57225;61.460;24.060;2022-11-25T09:20:49;8.70;;;3.80;;
61756;SDS011;57225;61.460;24.060;2022-11-25T09:23:33;7.20;;;3.05;;
61756;SDS011;57225;61.460;24.060;2022-11-25T09:26:25;5.28;;;2.95;;
61756;SDS011;57225;61.460;24.060;2022-11-25T09:29:11;5.30;;;2.97;;
61756;SDS011;57225;61.460;24.060;2022-11-25T09:31:56;4.72;;;3.10;;
61756;SDS011;57225;61.460;24.060;2022-11-25T09:34:41;7.90;;;3.60;;
61756;SDS011;57225;61.460;24.060;2022-11-25T09:37:24;4.45;;;3.00;;
61756;SDS011;57225;61.460;24.060;2022-11-25T09:40:20;6.05;;;3.25;;
61756;SDS011;57225;61.460;24.060;2022-11-25T09:55:29;7.32;;;2.95;;
61756;SDS011;57225;61.460;24.060;2022-11-25T10:01:34;6.82;;;3.50;;
61756;SDS011;57225;61.460;24.060;2022-11-25T10:04:44;6.10;;;3.35;;
61756;SDS011;57225;61.460;24.060;2022-11-25T10:07:43;6.75;;;3.60;;
61756;SDS011;57225;61.460;24.060;2022-11-25T10:10:48;5.43;;;3.72;;
61756;SDS011;57225;61.460;24.060;2022-11-25T10:17:13;7.88;;;3.50;;
61756;SDS011;57225;61.460;24.060;2022-11-25T10:23:40;6.80;;;3.70;;
61756;SDS011;57225;61.460;24.060;2022-11-25T10:26:11;6.40;;;4.15;;
61756;SDS011;57225;61.460;24.060;2022-11-25T10:29:33;6.97;;;4.05;;
61756;SDS011;57225;61.460;24.060;2022-11-25T10:35:10;7.10;;;3.60;;
61756;SDS011;57225;61.460;24.060;2022-11-25T10:38:00;6.53;;;4.18;;
61756;SDS011;57225;61.460;24.060;2022-11-25T10:40:49;10.90;;;4.25;;
61756;SDS011;57225;61.460;24.060;2022-11-25T10:43:35;7.20;;;3.78;;
61756;SDS011;57225;61.460;24.060;2022-11-25T10:49:35;6.90;;;3.70;;
61756;SDS011;57225;61.460;24.060;2022-11-25T10:52:31;6.10;;;3.97;;
61756;SDS011;57225;61.460;24.060;2022-11-25T10:55:24;8.05;;;3.47;;
61756;SDS011;57225;61.460;24.060;2022-11-25T10:58:52;7.45;;;4.57;;
61756;SDS011;57225;61.460;24.060;2022-11-25T11:04:04;7.18;;;4.03;;
61756;SDS011;57225;61.460;24.060;2022-11-25T11:06:54;7.85;;;4.30;;
61756;SDS011;57225;61.460;24.060;2022-11-25T11:09:51;7.88;;;3.85;;
61756;SDS011;57225;61.460;24.060;2022-11-25T11:12:36;7.32;;;4.25;;
61756;SDS011;57225;61.460;24.060;2022-11-25T11:15:22;7.13;;;4.50;;
61756;SDS011;57225;61.460;24.060;2022-11-25T11:21:46;17.50;;;4.53;;
61756;SDS011;57225;61.460;24.060;2022-11-25T11:24:28;8.25;;;4.22;;
61756;SDS011;57225;61.460;24.060;2022-11-25T11:27:20;11.35;;;5.15;;
61756;SDS011;57225;61.460;24.060;2022-11-25T11:30:08;7.57;;;4.38;;
61756;SDS011;57225;61.460;24.060;2022-11-25T11:32:58;7.07;;;4.10;;
61756;SDS011;57225;61.460;24.060;2022-11-25T11:35:54;7.85;;;4.38;;
61756;SDS011;57225;61.460;24.060;2022-11-25T11:38:53;8.35;;;4.07;;
61756;SDS011;57225;61.460;24.060;2022-11-25T11:41:55;7.63;;;3.88;;
61756;SDS011;57225;61.460;24.060;2022-11-25T11:48:37;8.27;;;4.13;;
61756;SDS011;57225;61.460;24.060;2022-11-25T11:51:34;10.02;;;4.93;;
61756;SDS011;57225;61.460;24.060;2022-11-25T12:00:23;9.00;;;5.07;;
61756;SDS011;57225;61.460;24.060;2022-11-25T12:03:16;9.90;;;5.50;;
61756;SDS011;57225;61.460;24.060;2022-11-25T12:06:04;10.02;;;5.68;;
61756;SDS011;57225;61.460;24.060;2022-11-25T12:08:58;10.97;;;5.90;;
61756;SDS011;57225;61.460;24.060;2022-11-25T12:11:48;11.80;;;6.35;;
61756;SDS011;57225;61.460;24.060;2022-11-25T12:17:35;10.80;;;5.47;;
61756;SDS011;57225;61.460;24.060;2022-11-25T12:23:38;8.90;;;5.47;;
61756;SDS011;57225;61.460;24.060;2022-11-25T12:26:44;8.85;;;4.95;;
61756;SDS011;57225;61.460;24.060;2022-11-25T12:32:51;9.35;;;5.47;;
61756;SDS011;57225;61.460;24.060;2022-11-25T12:35:46;10.55;;;5.78;;
61756;SDS011;57225;61.460;24.060;2022-11-25T12:41:47;8.10;;;4.65;;
61756;SDS011;57225;61.460;24.060;2022-11-25T12:48:01;9.80;;;4.70;;
61756;SDS011;57225;61.460;24.060;2022-11-25T12:51:49;6.93;;;4.47;;
61756;SDS011;57225;61.460;24.060;2022-11-25T12:54:22;9.25;;;4.90;;
61756;SDS011;57225;61.460;24.060;2022-11-25T13:03:59;7.28;;;3.88;;
61756;SDS011;57225;61.460;24.060;2022-11-25T13:16:06;6.75;;;3.70;;
61756;SDS011;57225;61.460;24.060;2022-11-25T13:18:52;5.78;;;3.35;;
61756;SDS011;57225;61.460;24.060;2022-11-25T13:21:55;6.90;;;3.65;;
61756;SDS011;57225;61.460;24.060;2022-11-25T13:24:43;5.75;;;3.40;;
61756;SDS011;57225;61.460;24.060;2022-11-25T13:27:55;6.25;;;3.60;;
61756;SDS011;57225;61.460;24.060;2022-11-25T13:30:40;11.70;;;3.83;;
61756;SDS011;57225;61.460;24.060;2022-11-25T13:36:19;8.25;;;4.40;;
61756;SDS011;57225;61.460;24.060;2022-11-25T13:39:18;7.88;;;4.20;;
61756;SDS011;57225;61.460;24.060;2022-11-25T13:42:13;7.63;;;4.22;;
61756;SDS011;57225;61.460;24.060;2022-11-25T13:45:19;7.30;;;4.63;;
61756;SDS011;57225;61.460;24.060;2022-11-25T13:48:19;8.63;;;4.65;;
61756;SDS011;57225;61.460;24.060;2022-11-25T13:51:16;8.75;;;5.50;;
61756;SDS011;57225;61.460;24.060;2022-11-25T13:54:04;8.68;;;5.13;;
61756;SDS011;57225;61.460;24.060;2022-11-25T13:56:57;9.45;;;4.50;;
61756;SDS011;57225;61.460;24.060;2022-11-25T14:00:41;8.20;;;4.75;;
61756;SDS011;57225;61.460;24.060;2022-11-25T14:15:56;4.35;;;2.65;;
61756;SDS011;57225;61.460;24.060;2022-11-25T14:19:10;4.25;;;2.65;;
61756;SDS011;57225;61.460;24.060;2022-11-25T14:25:41;8.68;;;2.88;;
61756;SDS011;57225;61.460;24.060;2022-11-25T14:31:20;5.72;;;2.95;;
61756;SDS011;57225;61.460;24.060;2022-11-25T14:35:01;4.78;;;2.75;;
61756;SDS011;57225;61.460;24.060;2022-11-25T14:37:51;6.72;;;3.00;;
61756;SDS011;57225;61.460;24.060;2022-11-25T14:40:37;5.28;;;2.88;;
61756;SDS011;57225;61.460;24.060;2022-11-25T14:43:27;6.65;;;3.88;;
61756;SDS011;57225;61.460;24.060;2022-11-25T14:46:19;7.35;;;3.58;;
61756;SDS011;57225;61.460;24.060;2022-11-25T14:49:05;5.68;;;3.50;;
61756;SDS011;57225;61.460;24.060;2022-11-25T14:51:50;5.72;;;3.58;;
61756;SDS011;57225;61.460;24.060;2022-11-25T14:54:42;5.88;;;3.58;;
61756;SDS011;57225;61.460;24.060;2022-11-25T14:57:28;7.30;;;3.95;;
61756;SDS011;57225;61.460;24.060;2022-11-25T15:00:17;6.68;;;3.60;;
61756;SDS011;57225;61.460;24.060;2022-11-25T15:03:03;7.57;;;3.72;;
61756;SDS011;57225;61.460;24.060;2022-11-25T15:05:53;5.78;;;3.45;;
61756;SDS011;57225;61.460;24.060;2022-11-25T15:08:40;6.95;;;3.75;;
61756;SDS011;57225;61.460;24.060;2022-11-25T15:11:30;7.00;;;3.95;;
61756;SDS011;57225;61.460;24.060;2022-11-25T15:14:20;7.53;;;3.78;;
61756;SDS011;57225;61.460;24.060;2022-11-25T15:17:29;6.30;;;3.95;;
61756;SDS011;57225;61.460;24.060;2022-11-25T15:20:15;4.80;;;3.55;;
61756;SDS011;57225;61.460;24.060;2022-11-25T15:23:00;7.45;;;4.25;;
61756;SDS011;57225;61.460;24.060;2022-11-25T15:25:51;6.78;;;4.25;;
61756;SDS011;57225;61.460;24.060;2022-11-25T15:28:37;6.63;;;4.13;;
61756;SDS011;57225;61.460;24.060;2022-11-25T15:31:25;7.55;;;4.20;;
61756;SDS011;57225;61.460;24.060;2022-11-25T15:34:12;6.40;;;3.88;;
61756;SDS011;57225;61.460;24.060;2022-11-25T15:37:01;4.97;;;2.97;;
61756;SDS011;57225;61.460;24.060;2022-11-25T15:39:46;4.45;;;2.70;;
61756;SDS011;57225;61.460;24.060;2022-11-25T15:42:30;4.60;;;2.78;;
61756;SDS011;57225;61.460;24.060;2022-11-25T15:45:18;5.50;;;2.67;;
61756;SDS011;57225;61.460;24.060;2022-11-25T15:48:04;4.07;;;2.55;;
61756;SDS011;57225;61.460;24.060;2022-11-25T15:50:48;5.72;;;3.00;;
61756;SDS011;57225;61.460;24.060;2022-11-25T15:53:33;4.55;;;3.00;;
61756;SDS011;57225;61.460;24.060;2022-11-25T15:56:21;4.97;;;2.22;;
61756;SDS011;57225;61.460;24.060;2022-11-25T16:05:29;4.88;;;2.92;;
61756;SDS011;57225;61.460;24.060;2022-11-25T16:11:09;8.63;;;3.60;;
61756;SDS011;57225;61.460;24.060;2022-11-25T16:14:15;7.30;;;3.92;;
61756;SDS011;57225;61.460;24.060;2022-11-25T16:17:09;7.60;;;4.30;;
61756;SDS011;57225;61.460;24.060;2022-11-25T16:19:55;7.20;;;4.22;;
61756;SDS011;57225;61.460;24.060;2022-11-25T16:22:40;7.95;;;4.35;;
61756;SDS011;57225;61.460;24.060;2022-11-25T16:25:24;9.98;;;3.67;;
61756;SDS011;57225;61.460;24.060;2022-11-25T16:28:18;6.88;;;3.65;;
61756;SDS011;57225;61.460;24.060;2022-11-25T16:31:04;5.70;;;3.75;;
61756;SDS011;57225;61.460;24.060;2022-11-25T16:33:49;9.23;;;3.60;;
61756;SDS011;57225;61.460;24.060;2022-11-25T16:36:53;8.55;;;3.78;;
61756;SDS011;57225;61.460;24.060;2022-11-25T16:39:38;7.53;;;3.80;;
61756;SDS011;57225;61.460;24.060;2022-11-25T16:42:23;5.65;;;3.30;;
61756;SDS011;57225;61.460;24.060;2022-11-25T16:48:14;9.35;;;3.92;;
61756;SDS011;57225;61.460;24.060;2022-11-25T16:51:00;7.15;;;4.40;;
61756;SDS011;57225;61.460;24.060;2022-11-25T16:53:45;7.03;;;3.92;;
61756;SDS011;57225;61.460;24.060;2022-11-25T16:56:32;7.07;;;3.88;;
61756;SDS011;57225;61.460;24.060;2022-11-25T17:02:13;8.75;;;3.65;;
61756;SDS011;57225;61.460;24.060;2022-11-25T17:08:01;7.60;;;3.97;;
61756;SDS011;57225;61.460;24.060;2022-11-25T17:10:45;9.02;;;4.07;;
61756;SDS011;57225;61.460;24.060;2022-11-25T17:13:30;8.10;;;4.25;;
61756;SDS011;57225;61.460;24.060;2022-11-25T17:16:21;7.13;;;4.05;;
61756;SDS011;57225;61.460;24.060;2022-11-25T17:19:08;9.30;;;4.05;;
61756;SDS011;57225;61.460;24.060;2022-11-25T17:21:56;10.70;;;5.38;;
61756;SDS011;57225;61.460;24.060;2022-11-25T17:24:40;9.10;;;4.25;;
61756;SDS011;57225;61.460;24.060;2022-11-25T17:27:26;10.25;;;4.68;;
61756;SDS011;57225;61.460;24.060;2022-11-25T17:33:05;10.73;;;5.15;;
61756;SDS011;57225;61.460;24.060;2022-11-25T17:35:55;9.95;;;5.40;;
61756;SDS011;57225;61.460;24.060;2022-11-25T17:38:40;12.30;;;5.88;;
61756;SDS011;57225;61.460;24.060;2022-11-25T17:41:24;8.85;;;5.07;;
61756;SDS011;57225;61.460;24.060;2022-11-25T17:44:12;9.65;;;4.70;;
61756;SDS011;57225;61.460;24.060;2022-11-25T17:47:13;11.52;;;5.22;;
61756;SDS011;57225;61.460;24.060;2022-11-25T17:49:59;15.30;;;5.45;;
61756;SDS011;57225;61.460;24.060;2022-11-25T17:52:44;16.48;;;6.45;;
61756;SDS011;57225;61.460;24.060;2022-11-25T17:55:29;21.10;;;8.57;;
61756;SDS011;57225;61.460;24.060;2022-11-25T17:58:14;23.38;;;10.90;;
61756;SDS011;57225;61.460;24.060;2022-11-25T18:00:58;17.65;;;7.68;;
61756;SDS011;57225;61.460;24.060;2022-11-25T18:03:43;10.27;;;5.80;;
61756;SDS011;57225;61.460;24.060;2022-11-25T18:06:27;13.15;;;6.22;;
61756;SDS011;57225;61.460;24.060;2022-11-25T18:09:11;10.13;;;6.07;;
61756;SDS011;57225;61.460;24.060;2022-11-25T18:11:56;13.38;;;6.22;;
61756;SDS011;57225;61.460;24.060;2022-11-25T18:14:46;11.07;;;5.80;;
61756;SDS011;57225;61.460;24.060;2022-11-25T18:17:30;13.45;;;5.82;;
61756;SDS011;57225;61.460;24.060;2022-11-25T18:23:07;13.77;;;6.22;;
61756;SDS011;57225;61.460;24.060;2022-11-25T18:25:53;13.82;;;7.35;;
61756;SDS011;57225;61.460;24.060;2022-11-25T18:28:39;17.58;;;7.10;;
61756;SDS011;57225;61.460;24.060;2022-11-25T18:31:23;14.63;;;6.97;;
61756;SDS011;57225;61.460;24.060;2022-11-25T18:34:11;18.73;;;7.60;;
61756;SDS011;57225;61.460;24.060;2022-11-25T18:36:57;17.48;;;7.57;;
61756;SDS011;57225;61.460;24.060;2022-11-25T18:39:42;19.33;;;7.05;;